General Baldissera, Argentina
Current Conditions -  °F | °C
As of 10:00 PM on Wednesday 22 Oct 2014 (Local Time) from SAAR Reporting Station
Clear Clear  
Wind Chill: 22°   Ceiling: Unl
Heat Index: 22°   Visibility: 6mi
Dew Point: 16°   Wind: 3mph
Humidity: 69%   Direction: 70°ENE
Pressure: 29.97"   Gusts: NA
Location:  33.12°S, 62.32°W
Report Text: SAAR 230100Z 07003KT CAVOK 22/16 Q1015
Loading
Personal Weather Stations






























Interactive Weather Map
Tropical Storm Tracking
New forecast layout! Learn more

10-Day Weather Forecast

Advertisements
Track Severe Weather on mobile